Time;durP1;ratioP1;P1;durP2;ratioP2;P2;SDS_P1;SDS_P2;PMS_P1;PMS_P2;Temp;Humidity;BMP_temperature;BMP_pressure;BME280_temperature;BME280_humidity;BME280_pressure;Samples;Min_cycle;Max_cycle;Signal;HPM_P1;HPM_P2
2024/03/17 00:01:38;;;;;;;6.90;4.90;;;11.80;99.90;;;;;;5017258;28;20905;-68
2024/03/17 00:04:04;;;;;;;6.60;4.30;;;11.70;99.90;;;;;;5017049;28;20454;-68
2024/03/17 00:06:30;;;;;;;7.30;5.07;;;11.70;99.90;;;;;;5015899;28;20439;-68
2024/03/17 00:08:56;;;;;;;7.83;4.77;;;11.70;99.90;;;;;;5014448;28;20181;-68
2024/03/17 00:11:21;;;;;;;7.67;5.57;;;11.70;99.90;;;;;;5019813;28;20507;-68
2024/03/17 00:13:47;;;;;;;6.13;5.00;;;11.70;99.90;;;;;;5010991;28;20192;-68
2024/03/17 00:16:13;;;;;;;6.13;5.10;;;11.60;99.90;;;;;;5015073;28;20212;-68
2024/03/17 00:18:39;;;;;;;6.70;4.77;;;11.60;99.90;;;;;;5017150;28;20228;-68
2024/03/17 00:21:05;;;;;;;5.20;4.43;;;11.60;99.90;;;;;;5015226;28;20296;-68
2024/03/17 00:23:30;;;;;;;6.50;4.40;;;11.60;99.90;;;;;;5013798;28;20432;-68
2024/03/17 00:25:56;;;;;;;7.03;4.67;;;11.60;99.90;;;;;;5013516;28;20894;-68
2024/03/17 00:28:22;;;;;;;7.03;5.00;;;11.60;99.90;;;;;;5015044;28;20178;-67
2024/03/17 00:30:47;;;;;;;6.60;4.87;;;11.50;99.90;;;;;;5018552;28;20188;-67
2024/03/17 00:33:14;;;;;;;7.30;4.87;;;11.50;99.90;;;;;;5017446;28;20176;-68
2024/03/17 00:35:39;;;;;;;6.93;4.93;;;11.50;99.90;;;;;;5014406;28;20223;-67
2024/03/17 00:38:10;;;;;;;8.00;5.10;;;11.50;99.90;;;;;;5015670;28;20428;-68
2024/03/17 00:40:40;;;;;;;6.40;4.80;;;11.50;99.90;;;;;;5013402;28;20176;-68
2024/03/17 00:43:06;;;;;;;9.30;5.30;;;11.50;99.90;;;;;;5014121;28;20454;-68
2024/03/17 00:45:31;;;;;;;6.87;6.17;;;11.50;99.90;;;;;;5018819;28;20443;-68
2024/03/17 00:47:57;;;;;;;7.50;5.93;;;11.50;99.90;;;;;;5014325;28;20203;-68
2024/03/17 00:50:23;;;;;;;11.20;6.40;;;11.50;99.90;;;;;;5013205;28;20181;-68
2024/03/17 00:52:48;;;;;;;11.20;5.33;;;11.50;99.90;;;;;;5017514;28;20203;-68
2024/03/17 00:55:14;;;;;;;7.50;5.70;;;11.40;99.90;;;;;;5018104;28;20586;-68
2024/03/17 00:57:40;;;;;;;6.00;5.23;;;11.40;99.90;;;;;;5017082;28;20173;-68
2024/03/17 01:00:10;;;;;;;5.83;5.30;;;11.40;99.90;;;;;;5019644;28;20433;-68
2024/03/17 01:02:35;;;;;;;6.43;5.40;;;11.40;99.90;;;;;;5017022;28;20459;-68
2024/03/17 01:05:01;;;;;;;7.53;5.47;;;11.40;99.90;;;;;;5014772;28;20549;-68
2024/03/17 01:07:26;;;;;;;6.70;5.20;;;11.40;99.90;;;;;;5014813;28;20188;-68
2024/03/17 01:09:52;;;;;;;8.47;5.57;;;11.30;99.90;;;;;;5012260;28;20643;-68
2024/03/17 01:12:18;;;;;;;7.27;4.83;;;11.30;99.90;;;;;;5010140;28;20186;-69
2024/03/17 01:14:43;;;;;;;7.43;5.47;;;11.30;99.90;;;;;;5014267;28;20224;-68
2024/03/17 01:17:09;;;;;;;6.43;5.00;;;11.30;99.90;;;;;;5016814;28;20196;-67
2024/03/17 01:19:34;;;;;;;10.77;6.20;;;11.30;99.90;;;;;;5014299;28;20189;-67
2024/03/17 01:22:01;;;;;;;6.37;5.40;;;11.30;99.90;;;;;;5014909;28;20185;-67
2024/03/17 01:24:31;;;;;;;8.30;6.10;;;11.20;99.90;;;;;;5017190;28;20195;-67
2024/03/17 01:26:58;;;;;;;6.50;5.33;;;11.20;99.90;;;;;;5011158;28;20435;-67
2024/03/17 01:29:24;;;;;;;9.17;6.27;;;11.20;99.90;;;;;;5020420;28;20420;-68
2024/03/17 01:31:50;;;;;;;11.93;6.13;;;11.20;99.90;;;;;;5012577;28;20417;-68
2024/03/17 01:34:16;;;;;;;8.97;6.17;;;11.20;99.90;;;;;;5010787;28;20284;-68
2024/03/17 01:36:42;;;;;;;8.53;6.20;;;11.20;99.90;;;;;;5013707;28;20471;-68
2024/03/17 01:39:07;;;;;;;7.00;5.97;;;11.20;99.90;;;;;;5013434;28;20180;-68
2024/03/17 01:41:33;;;;;;;9.63;6.37;;;11.20;99.90;;;;;;5019616;28;20639;-68
2024/03/17 01:43:58;;;;;;;8.07;6.47;;;11.20;99.90;;;;;;5013378;28;20254;-68
2024/03/17 01:46:25;;;;;;;8.33;6.07;;;11.20;99.90;;;;;;5015020;28;20191;-68
2024/03/17 01:48:51;;;;;;;8.23;5.80;;;11.20;99.90;;;;;;5012602;28;20180;-68
2024/03/17 01:51:17;;;;;;;9.67;6.70;;;11.10;99.90;;;;;;5015269;28;20470;-68
2024/03/17 01:53:44;;;;;;;10.60;6.10;;;11.20;99.90;;;;;;5011557;28;20415;-67
2024/03/17 01:56:11;;;;;;;8.07;6.17;;;11.10;99.90;;;;;;5014202;28;20471;-67
2024/03/17 01:58:37;;;;;;;6.80;6.10;;;11.10;99.90;;;;;;5014618;28;20838;-68
2024/03/17 02:01:04;;;;;;;7.27;6.00;;;11.10;99.90;;;;;;5017469;28;20434;-68
2024/03/17 02:03:30;;;;;;;8.23;6.67;;;11.10;99.90;;;;;;5015759;28;20584;-68
2024/03/17 02:05:56;;;;;;;8.30;5.87;;;11.10;99.90;;;;;;5016543;28;20428;-67
2024/03/17 02:08:22;;;;;;;9.57;6.20;;;11.10;99.90;;;;;;5015757;28;20433;-67
2024/03/17 02:10:55;;;;;;;8.70;5.87;;;11.10;99.90;;;;;;5011100;28;20502;-68
2024/03/17 02:13:21;;;;;;;9.20;6.80;;;11.10;99.90;;;;;;5008737;28;20969;-68
2024/03/17 02:15:47;;;;;;;11.73;7.30;;;11.10;99.90;;;;;;5018100;28;20486;-68
2024/03/17 02:18:13;;;;;;;10.13;7.27;;;11.10;99.90;;;;;;5010595;28;20512;-68
2024/03/17 02:20:59;;;;;;;8.57;6.43;;;11.10;99.90;;;;;;5021948;28;20430;-68
2024/03/17 02:23:26;;;;;;;10.50;6.20;;;11.00;99.90;;;;;;5009878;28;20412;-67
2024/03/17 02:25:52;;;;;;;7.03;6.20;;;11.00;99.90;;;;;;5014668;28;20449;-68
2024/03/17 02:28:18;;;;;;;8.27;6.00;;;11.00;99.90;;;;;;5004338;28;20517;-67
2024/03/17 02:30:44;;;;;;;7.43;5.67;;;10.90;99.90;;;;;;5013766;28;20438;-67
2024/03/17 02:33:10;;;;;;;6.83;6.03;;;10.90;99.90;;;;;;5006169;28;21281;-68
2024/03/17 02:35:35;;;;;;;7.90;6.40;;;10.80;99.90;;;;;;5019103;28;20215;-67
2024/03/17 02:38:02;;;;;;;7.60;6.50;;;10.80;99.90;;;;;;5014401;28;20184;-67
2024/03/17 02:40:28;;;;;;;8.87;6.53;;;10.70;99.90;;;;;;5013063;28;20184;-67
2024/03/17 02:42:55;;;;;;;9.37;6.30;;;10.70;99.90;;;;;;5016831;28;20416;-67
2024/03/17 02:45:21;;;;;;;7.23;5.77;;;10.70;99.90;;;;;;5013674;28;20461;-67
2024/03/17 02:47:46;;;;;;;7.67;5.63;;;10.60;99.90;;;;;;5014862;28;20430;-67
2024/03/17 02:50:12;;;;;;;11.10;5.83;;;10.60;99.90;;;;;;5014070;28;20431;-67
2024/03/17 02:52:38;;;;;;;8.10;6.07;;;10.50;99.90;;;;;;5004062;28;20193;-67
2024/03/17 02:55:05;;;;;;;10.13;6.57;;;10.50;99.90;;;;;;5010686;28;20903;-67
2024/03/17 02:57:32;;;;;;;7.27;6.20;;;10.50;99.90;;;;;;5012487;28;20703;-67
2024/03/17 02:59:58;;;;;;;7.70;5.60;;;10.40;99.90;;;;;;5014475;28;20428;-68
2024/03/17 03:02:24;;;;;;;9.63;6.17;;;10.40;99.90;;;;;;5017926;28;20796;-67
2024/03/17 03:04:49;;;;;;;7.40;5.70;;;10.30;99.90;;;;;;5014934;28;20564;-67
2024/03/17 03:07:15;;;;;;;8.83;6.57;;;10.30;99.90;;;;;;5013412;28;21165;-67
2024/03/17 03:09:40;;;;;;;7.80;5.90;;;10.30;99.90;;;;;;5014975;28;20250;-67
2024/03/17 03:12:07;;;;;;;7.60;5.87;;;10.30;99.90;;;;;;5011823;28;20181;-67
2024/03/17 03:14:33;;;;;;;7.60;6.27;;;10.20;99.90;;;;;;5014717;28;20690;-67
2024/03/17 03:16:59;;;;;;;7.80;5.90;;;10.20;99.90;;;;;;5009907;28;20506;-67
2024/03/17 03:19:26;;;;;;;9.17;5.43;;;10.20;99.90;;;;;;5009118;28;20439;-67
2024/03/17 03:21:52;;;;;;;6.83;6.10;;;10.20;99.90;;;;;;5019610;28;20192;-67
2024/03/17 03:24:18;;;;;;;9.73;6.00;;;10.20;99.90;;;;;;5008228;28;20828;-67
2024/03/17 03:26:43;;;;;;;13.47;6.67;;;10.20;99.90;;;;;;5008077;28;20678;-67
2024/03/17 03:29:10;;;;;;;7.70;5.47;;;10.20;99.90;;;;;;5009592;28;20193;-68
2024/03/17 03:31:36;;;;;;;7.23;5.60;;;10.20;99.90;;;;;;5008481;28;20188;-68
2024/03/17 03:34:02;;;;;;;7.57;6.00;;;10.20;99.90;;;;;;5013716;28;20840;-68
2024/03/17 03:36:29;;;;;;;7.87;5.60;;;10.20;99.90;;;;;;5013186;28;20497;-68
2024/03/17 03:38:55;;;;;;;7.63;6.07;;;10.20;99.90;;;;;;5014773;28;20554;-67
2024/03/17 03:41:24;;;;;;;8.90;6.47;;;10.20;99.90;;;;;;5010910;28;20501;-67
2024/03/17 03:43:49;;;;;;;6.47;5.57;;;10.20;99.90;;;;;;5021387;28;20519;-67
2024/03/17 03:46:15;;;;;;;7.10;5.83;;;10.20;99.90;;;;;;5016874;28;20440;-68
2024/03/17 03:48:40;;;;;;;9.10;6.33;;;10.20;99.90;;;;;;5015646;28;20185;-68
2024/03/17 03:51:09;;;;;;;7.67;6.07;;;10.20;99.90;;;;;;5015578;28;20199;-68
2024/03/17 03:53:37;;;;;;;6.83;5.87;;;10.20;99.90;;;;;;5019699;28;20195;-68
2024/03/17 03:56:06;;;;;;;7.77;6.47;;;10.20;99.90;;;;;;5015720;28;20466;-68
2024/03/17 03:58:35;;;;;;;6.60;5.67;;;10.20;99.90;;;;;;5020776;28;20443;-67
2024/03/17 04:01:08;;;;;;;6.30;5.50;;;10.20;99.90;;;;;;5023214;28;20481;-67
2024/03/17 04:03:34;;;;;;;7.27;6.10;;;10.20;99.90;;;;;;5015742;28;20419;-67
2024/03/17 04:06:10;;;;;;;7.67;6.23;;;10.30;99.90;;;;;;5008658;28;20432;-67
2024/03/17 04:08:37;;;;;;;7.97;5.90;;;10.20;99.90;;;;;;5014804;28;20598;-67
2024/03/17 04:11:04;;;;;;;8.13;6.10;;;10.30;99.90;;;;;;5015909;28;20529;-67
2024/03/17 04:13:30;;;;;;;8.00;6.43;;;10.30;99.90;;;;;;5014464;28;20430;-68
2024/03/17 04:15:58;;;;;;;8.30;6.40;;;10.30;99.90;;;;;;5014770;28;20472;-67
2024/03/17 04:18:24;;;;;;;7.00;5.80;;;10.20;99.90;;;;;;5008693;28;20443;-68
2024/03/17 04:20:52;;;;;;;7.70;5.73;;;10.20;99.90;;;;;;5017728;28;20486;-68
2024/03/17 04:23:19;;;;;;;8.50;6.13;;;10.20;99.90;;;;;;5014615;28;20458;-68
2024/03/17 04:25:45;;;;;;;10.60;6.17;;;10.20;99.90;;;;;;5014836;28;20837;-68
2024/03/17 04:28:10;;;;;;;6.80;6.13;;;10.20;99.90;;;;;;5010802;28;20439;-68
2024/03/17 04:30:36;;;;;;;8.17;6.90;;;10.10;99.90;;;;;;5022446;28;20179;-68
2024/03/17 04:33:03;;;;;;;6.70;5.77;;;10.10;99.90;;;;;;5018774;28;20185;-68
2024/03/17 04:35:29;;;;;;;6.47;5.70;;;10.10;99.90;;;;;;5009752;28;20475;-67
2024/03/17 04:37:57;;;;;;;8.40;6.80;;;10.00;99.90;;;;;;5017378;28;20416;-67
2024/03/17 04:40:22;;;;;;;10.50;6.70;;;10.00;99.90;;;;;;5017501;28;20176;-68
2024/03/17 04:42:48;;;;;;;6.80;5.67;;;10.00;99.90;;;;;;5013171;28;20412;-68
2024/03/17 04:45:13;;;;;;;8.90;5.73;;;9.90;99.90;;;;;;5010139;28;20204;-68
2024/03/17 04:47:39;;;;;;;7.60;6.00;;;9.90;99.90;;;;;;5014453;28;20250;-68
2024/03/17 04:50:05;;;;;;;8.27;5.83;;;9.90;99.90;;;;;;5013872;28;20256;-68
2024/03/17 04:52:31;;;;;;;8.60;6.13;;;9.90;99.90;;;;;;5014500;28;20192;-68
2024/03/17 04:54:57;;;;;;;7.03;5.77;;;9.80;99.90;;;;;;5017146;28;20466;-68
2024/03/17 04:57:22;;;;;;;9.43;6.40;;;9.80;99.90;;;;;;5015167;28;20225;-68
2024/03/17 04:59:48;;;;;;;8.20;6.30;;;9.70;99.90;;;;;;5016574;28;20176;-68
2024/03/17 05:02:13;;;;;;;8.07;6.20;;;9.70;99.90;;;;;;5015917;28;20216;-68
2024/03/17 05:04:39;;;;;;;8.00;6.00;;;9.70;99.90;;;;;;5018720;28;20197;-68
2024/03/17 05:07:05;;;;;;;8.37;6.60;;;9.60;99.90;;;;;;5011440;28;20177;-68
2024/03/17 05:09:30;;;;;;;8.00;6.03;;;9.60;99.90;;;;;;5014756;28;20428;-67
2024/03/17 05:11:56;;;;;;;8.47;6.57;;;9.60;99.90;;;;;;5015759;28;20615;-68
2024/03/17 05:14:21;;;;;;;8.23;6.43;;;9.50;99.90;;;;;;5008603;28;20647;-68
2024/03/17 05:16:51;;;;;;;7.97;7.17;;;9.40;99.90;;;;;;5013028;28;20232;-68
2024/03/17 05:19:20;;;;;;;8.53;6.60;;;9.40;99.90;;;;;;5011153;28;20188;-68
2024/03/17 05:21:46;;;;;;;8.83;6.13;;;9.40;99.90;;;;;;5011408;28;20432;-68
2024/03/17 05:24:14;;;;;;;8.80;6.03;;;9.30;99.90;;;;;;5013447;28;20432;-68
2024/03/17 05:26:42;;;;;;;8.00;7.20;;;9.30;99.90;;;;;;5017283;28;20234;-67
2024/03/17 05:29:08;;;;;;;10.53;7.10;;;9.30;99.90;;;;;;5013226;28;20419;-68
2024/03/17 05:31:34;;;;;;;9.87;7.57;;;9.30;99.90;;;;;;5010548;28;20435;-68
2024/03/17 05:33:59;;;;;;;6.87;5.97;;;9.20;99.90;;;;;;5011561;28;20484;-68
2024/03/17 05:36:25;;;;;;;10.80;7.40;;;9.20;99.90;;;;;;5012188;28;20502;-67
2024/03/17 05:38:51;;;;;;;11.33;7.50;;;9.20;99.90;;;;;;5009855;28;20284;-68
2024/03/17 05:41:16;;;;;;;7.83;7.03;;;9.20;99.90;;;;;;5014610;28;20227;-67
2024/03/17 05:43:42;;;;;;;9.83;7.63;;;9.20;99.90;;;;;;5014471;28;20224;-68
2024/03/17 05:46:11;;;;;;;8.50;7.70;;;9.20;99.90;;;;;;5012014;28;20573;-68
2024/03/17 05:48:38;;;;;;;9.20;6.90;;;9.20;99.90;;;;;;5014004;28;20426;-68
2024/03/17 05:51:08;;;;;;;9.80;7.77;;;9.20;99.90;;;;;;5013394;28;20442;-67
2024/03/17 05:53:34;;;;;;;8.30;7.23;;;9.20;99.90;;;;;;5018174;28;20844;-67
2024/03/17 05:56:03;;;;;;;7.53;6.50;;;9.20;99.90;;;;;;5013881;28;20961;-67
2024/03/17 05:58:30;;;;;;;7.83;7.00;;;9.20;99.90;;;;;;5008051;28;21126;-67
2024/03/17 06:00:55;;;;;;;10.00;7.60;;;9.20;99.90;;;;;;5014969;28;20921;-67
2024/03/17 06:03:21;;;;;;;11.20;8.50;;;9.20;99.90;;;;;;5018155;28;20465;-68
2024/03/17 06:05:48;;;;;;;11.20;8.30;;;9.20;99.90;;;;;;5008883;28;20307;-67
2024/03/17 06:08:14;;;;;;;8.33;7.03;;;9.20;99.90;;;;;;5017081;28;20423;-68
2024/03/17 06:10:47;;;;;;;8.00;7.00;;;9.20;99.90;;;;;;5009975;28;20423;-67
2024/03/17 06:13:16;;;;;;;8.83;7.70;;;9.20;99.90;;;;;;5005813;28;20428;-67
2024/03/17 06:15:48;;;;;;;11.53;6.37;;;9.30;99.90;;;;;;5014137;28;20502;-67
2024/03/17 06:18:16;;;;;;;10.00;7.30;;;9.30;99.90;;;;;;5008743;28;20838;-68
2024/03/17 06:20:43;;;;;;;9.43;6.97;;;9.30;99.90;;;;;;5016584;28;20944;-68
2024/03/17 06:23:09;;;;;;;6.70;6.00;;;9.30;99.90;;;;;;5017498;28;20913;-68
2024/03/17 06:25:46;;;;;;;7.63;6.83;;;9.30;99.90;;;;;;5016909;28;20561;-68
2024/03/17 06:28:15;;;;;;;10.63;6.40;;;9.30;99.90;;;;;;5014792;28;20425;-67
2024/03/17 06:30:48;;;;;;;7.87;6.60;;;9.40;99.90;;;;;;5014989;28;20420;-67
2024/03/17 06:33:15;;;;;;;7.23;6.30;;;9.40;99.90;;;;;;5011265;28;20431;-67
2024/03/17 06:35:41;;;;;;;10.40;7.00;;;9.40;99.90;;;;;;5013408;28;20559;-68
2024/03/17 06:38:09;;;;;;;7.80;6.90;;;9.40;99.90;;;;;;5014523;28;20534;-67
2024/03/17 06:40:35;;;;;;;9.30;7.80;;;9.40;99.90;;;;;;5015302;28;20274;-68
2024/03/17 06:43:01;;;;;;;8.10;7.20;;;9.40;99.90;;;;;;5011347;28;20427;-67
2024/03/17 06:45:26;;;;;;;7.80;6.50;;;9.40;99.90;;;;;;5012779;28;20570;-67
2024/03/17 06:47:52;;;;;;;9.90;6.37;;;9.40;99.90;;;;;;5012540;28;20228;-67
2024/03/17 06:50:18;;;;;;;8.77;6.60;;;9.40;99.90;;;;;;5012321;28;20654;-67
2024/03/17 06:52:43;;;;;;;8.60;7.20;;;9.40;99.90;;;;;;5007899;28;20271;-67
2024/03/17 06:55:09;;;;;;;9.60;7.30;;;9.50;99.90;;;;;;5015713;28;20785;-67
2024/03/17 06:57:35;;;;;;;8.57;6.67;;;9.50;99.90;;;;;;5010967;28;20177;-67
2024/03/17 07:00:05;;;;;;;8.20;6.47;;;9.50;99.90;;;;;;5016826;28;20216;-67
2024/03/17 07:02:32;;;;;;;7.87;6.47;;;9.50;99.90;;;;;;5022457;28;20863;-67
2024/03/17 07:04:57;;;;;;;7.67;6.50;;;9.60;99.90;;;;;;5019339;28;20434;-67
2024/03/17 07:07:26;;;;;;;9.07;5.73;;;9.60;99.90;;;;;;5011752;28;20446;-68
2024/03/17 07:09:51;;;;;;;7.43;6.27;;;9.70;99.90;;;;;;5013448;28;20203;-67
2024/03/17 07:12:17;;;;;;;9.20;6.80;;;9.80;99.90;;;;;;5012657;28;20470;-67
2024/03/17 07:14:42;;;;;;;7.10;5.23;;;9.80;99.90;;;;;;5014237;28;20236;-67
2024/03/17 07:17:08;;;;;;;7.47;6.30;;;9.90;99.90;;;;;;5015993;28;20200;-68
2024/03/17 07:19:35;;;;;;;7.37;6.63;;;10.00;99.90;;;;;;5016188;28;20173;-67
2024/03/17 07:22:01;;;;;;;7.00;5.83;;;10.10;99.90;;;;;;5022613;28;20580;-67
2024/03/17 07:24:27;;;;;;;6.13;5.53;;;10.20;99.90;;;;;;5025352;28;20968;-68
2024/03/17 07:26:53;;;;;;;10.70;6.00;;;10.30;99.90;;;;;;5025378;28;20422;-67
2024/03/17 07:29:19;;;;;;;7.70;5.87;;;10.40;99.90;;;;;;5023310;28;20188;-67
2024/03/17 07:31:44;;;;;;;7.03;5.87;;;10.50;99.90;;;;;;5013187;28;20215;-67
2024/03/17 07:34:10;;;;;;;11.80;6.80;;;10.60;99.90;;;;;;5017453;28;20478;-68
2024/03/17 07:36:36;;;;;;;7.47;6.20;;;10.70;99.90;;;;;;5018862;28;20203;-67
2024/03/17 07:39:02;;;;;;;8.40;5.90;;;10.80;99.90;;;;;;5015649;28;20177;-67
2024/03/17 07:41:27;;;;;;;6.87;6.13;;;10.80;99.90;;;;;;5016719;28;20176;-68
2024/03/17 07:43:53;;;;;;;9.97;5.43;;;10.90;99.90;;;;;;5016324;28;20963;-68
2024/03/17 07:46:19;;;;;;;6.63;5.83;;;11.00;99.90;;;;;;5020508;28;20181;-68
2024/03/17 07:48:45;;;;;;;6.63;6.03;;;11.10;99.90;;;;;;5016383;28;20191;-67
2024/03/17 07:51:11;;;;;;;8.10;5.80;;;11.10;99.90;;;;;;5018675;28;20177;-67
2024/03/17 07:53:38;;;;;;;7.17;5.90;;;11.20;99.90;;;;;;5017754;28;20503;-68
2024/03/17 07:56:11;;;;;;;7.97;6.97;;;11.30;99.90;;;;;;5018349;28;20735;-67
2024/03/17 07:58:39;;;;;;;7.23;6.30;;;11.40;99.90;;;;;;5015378;28;20415;-68
2024/03/17 08:01:13;;;;;;;11.23;6.13;;;11.40;99.90;;;;;;5015607;28;20860;-68
2024/03/17 08:03:45;;;;;;;6.47;5.33;;;11.50;99.90;;;;;;5016175;28;20419;-68
2024/03/17 08:06:11;;;;;;;7.93;5.67;;;11.60;99.90;;;;;;5017607;28;20494;-68
2024/03/17 08:08:37;;;;;;;7.17;6.17;;;11.60;99.90;;;;;;5018729;28;20411;-68
2024/03/17 08:11:03;;;;;;;7.60;6.90;;;11.70;99.90;;;;;;5016373;28;20438;-67
2024/03/17 08:13:35;;;;;;;9.77;6.60;;;11.80;99.90;;;;;;5013801;28;20485;-67
2024/03/17 08:16:08;;;;;;;7.77;6.97;;;11.90;99.90;;;;;;5018470;28;20477;-67
2024/03/17 08:18:34;;;;;;;7.60;6.40;;;11.90;99.90;;;;;;5014456;28;20520;-67
2024/03/17 08:21:01;;;;;;;8.33;6.50;;;12.00;99.90;;;;;;5015537;28;20459;-67
2024/03/17 08:23:27;;;;;;;6.77;5.90;;;12.10;99.90;;;;;;5014291;28;20191;-67
2024/03/17 08:25:57;;;;;;;7.47;5.53;;;12.10;99.90;;;;;;5014131;28;20538;-67
2024/03/17 08:28:24;;;;;;;7.70;6.23;;;12.20;99.90;;;;;;5017116;28;20192;-68
2024/03/17 08:30:57;;;;;;;7.97;6.00;;;12.20;99.90;;;;;;5014870;28;20515;-68
2024/03/17 08:33:23;;;;;;;7.17;5.80;;;12.30;99.90;;;;;;5016397;28;20416;-68
2024/03/17 08:36:08;;;;;;;7.60;6.13;;;12.30;99.90;;;;;;5004379;28;20482;-68
2024/03/17 08:38:35;;;;;;;7.33;5.87;;;12.40;99.90;;;;;;5013776;28;20515;-68
2024/03/17 08:41:05;;;;;;;7.80;5.33;;;12.40;99.90;;;;;;5014626;28;20467;-68
2024/03/17 08:43:32;;;;;;;6.33;5.60;;;12.50;99.90;;;;;;5016547;28;20443;-68
2024/03/17 08:46:03;;;;;;;8.60;6.43;;;12.60;99.90;;;;;;5015467;28;20420;-68
2024/03/17 08:48:33;;;;;;;7.80;5.80;;;12.60;99.90;;;;;;5018311;28;20438;-68
2024/03/17 08:50:59;;;;;;;5.97;5.27;;;12.60;99.90;;;;;;5014729;28;20949;-68
2024/03/17 08:53:26;;;;;;;6.10;5.47;;;12.60;99.90;;;;;;5019243;28;20411;-68
2024/03/17 08:55:52;;;;;;;6.60;5.90;;;12.60;99.90;;;;;;5016424;28;20471;-68
2024/03/17 08:58:18;;;;;;;5.77;5.17;;;12.70;99.90;;;;;;5017882;28;20412;-68
2024/03/17 09:00:44;;;;;;;7.73;5.23;;;12.70;99.90;;;;;;5016027;28;20587;-68
2024/03/17 09:03:13;;;;;;;10.00;5.33;;;12.70;99.90;;;;;;5018466;28;20174;-68
2024/03/17 09:05:40;;;;;;;8.43;5.90;;;12.70;99.90;;;;;;5015910;28;20462;-68
2024/03/17 09:08:09;;;;;;;7.70;6.00;;;12.80;99.90;;;;;;5016543;28;20434;-67
2024/03/17 09:10:42;;;;;;;7.80;6.10;;;12.80;99.90;;;;;;5016336;28;20419;-68
2024/03/17 09:13:19;;;;;;;6.70;6.10;;;12.90;99.90;;;;;;5014786;28;20515;-68
2024/03/17 09:16:01;;;;;;;6.90;5.37;;;13.00;99.90;;;;;;5013622;28;22312;-67
2024/03/17 09:18:27;;;;;;;6.47;5.80;;;13.10;99.90;;;;;;5016546;28;20666;-68
2024/03/17 09:21:00;;;;;;;6.13;5.53;;;13.20;99.90;;;;;;5018370;28;20466;-68
2024/03/17 09:23:27;;;;;;;6.33;5.73;;;13.30;99.90;;;;;;5014481;28;20423;-68
2024/03/17 09:25:57;;;;;;;5.73;5.00;;;13.40;99.90;;;;;;5013220;28;21031;-68
2024/03/17 09:28:22;;;;;;;5.47;4.90;;;13.50;99.90;;;;;;5014360;28;20430;-68
2024/03/17 09:30:49;;;;;;;6.77;5.37;;;13.60;99.90;;;;;;5009216;28;20963;-68
2024/03/17 09:33:15;;;;;;;8.03;5.40;;;13.70;99.90;;;;;;5016020;28;20193;-68
2024/03/17 09:35:40;;;;;;;6.27;5.17;;;13.80;99.90;;;;;;5026839;28;20477;-68
2024/03/17 09:38:06;;;;;;;6.40;5.73;;;13.90;99.90;;;;;;5018708;28;20679;-68
2024/03/17 09:40:32;;;;;;;8.00;4.90;;;14.00;99.90;;;;;;5025322;28;20180;-68
2024/03/17 09:42:58;;;;;;;7.17;4.87;;;14.10;99.90;;;;;;5026426;28;20426;-68
2024/03/17 09:45:24;;;;;;;14.93;10.93;;;14.20;99.90;;;;;;5022464;28;20203;-68
2024/03/17 09:47:51;;;;;;;7.23;5.03;;;14.30;99.90;;;;;;5020832;28;20435;-67
2024/03/17 09:50:18;;;;;;;6.70;5.00;;;14.40;99.90;;;;;;5020609;28;20426;-68
2024/03/17 09:52:45;;;;;;;6.27;5.00;;;14.40;99.90;;;;;;5020724;28;20462;-68
2024/03/17 09:55:16;;;;;;;8.57;5.00;;;14.40;99.90;;;;;;5021061;28;20477;-68
2024/03/17 09:57:42;;;;;;;6.23;4.90;;;14.50;99.90;;;;;;5017228;28;20475;-68
2024/03/17 10:00:14;;;;;;;6.40;4.67;;;14.50;99.90;;;;;;5021240;28;20423;-68
2024/03/17 10:02:44;;;;;;;5.70;4.60;;;14.60;99.90;;;;;;5016681;28;20838;-68
2024/03/17 10:05:19;;;;;;;5.33;4.83;;;14.60;99.90;;;;;;5018843;28;20482;-68
2024/03/17 10:07:45;;;;;;;5.20;4.33;;;14.70;99.90;;;;;;5014799;28;20510;-68
2024/03/17 10:10:18;;;;;;;5.20;4.70;;;14.70;99.90;;;;;;5014633;28;20578;-68
2024/03/17 10:12:48;;;;;;;6.90;4.90;;;14.80;99.90;;;;;;5006649;28;20502;-68
2024/03/17 10:15:14;;;;;;;5.77;4.67;;;14.90;99.90;;;;;;5021344;28;20503;-68
2024/03/17 10:17:40;;;;;;;5.10;4.40;;;14.90;99.90;;;;;;5023104;28;20478;-68
2024/03/17 10:20:18;;;;;;;4.87;4.37;;;15.00;99.90;;;;;;5020047;28;20269;-68
2024/03/17 10:23:00;;;;;;;5.20;4.70;;;15.10;99.90;;;;;;5025251;28;20595;-68
2024/03/17 10:25:27;;;;;;;6.30;5.03;;;15.20;99.90;;;;;;5027135;28;20459;-65
2024/03/17 10:27:53;;;;;;;6.10;4.30;;;15.10;99.90;;;;;;5017937;28;20438;-66
2024/03/17 10:30:21;;;;;;;7.10;4.40;;;15.10;99.90;;;;;;5022596;28;20559;-66
2024/03/17 10:32:53;;;;;;;5.93;5.17;;;15.20;99.90;;;;;;5018887;28;21787;-68
2024/03/17 10:35:40;;;;;;;5.60;5.10;;;15.10;99.90;;;;;;5015795;28;20540;-67
2024/03/17 10:38:06;;;;;;;5.70;5.10;;;15.20;99.90;;;;;;5015957;28;20443;-67
2024/03/17 10:40:33;;;;;;;6.00;5.40;;;15.30;99.90;;;;;;5009250;28;20495;-67
2024/03/17 10:43:02;;;;;;;8.40;4.77;;;15.40;99.90;;;;;;5018548;28;20420;-69
2024/03/17 10:45:31;;;;;;;7.90;4.80;;;15.50;99.90;;;;;;5022643;28;20880;-68
2024/03/17 10:48:00;;;;;;;5.60;4.83;;;15.50;99.90;;;;;;5020978;28;20407;-68
2024/03/17 10:50:31;;;;;;;7.00;4.67;;;15.60;99.90;;;;;;5028543;28;20517;-68
2024/03/17 10:53:08;;;;;;;5.60;4.70;;;15.80;99.90;;;;;;5037026;28;20520;-67
2024/03/17 10:55:43;;;;;;;6.33;5.73;;;15.90;99.90;;;;;;5021488;28;21046;-67
2024/03/17 10:58:27;;;;;;;5.60;4.60;;;16.00;99.90;;;;;;5014132;28;20472;-68
2024/03/17 11:00:53;;;;;;;7.43;5.60;;;16.10;99.90;;;;;;5016856;28;20442;-67
2024/03/17 11:03:19;;;;;;;9.23;5.30;;;16.10;99.90;;;;;;5022200;28;20423;-67
2024/03/17 11:05:49;;;;;;;6.63;5.07;;;16.20;99.90;;;;;;5018074;28;21016;-69
2024/03/17 11:08:16;;;;;;;7.97;5.13;;;16.30;99.90;;;;;;5009254;28;20431;-68
2024/03/17 11:10:52;;;;;;;5.20;4.70;;;16.40;99.90;;;;;;5015125;28;20518;-67
2024/03/17 11:13:28;;;;;;;5.87;4.27;;;16.50;99.90;;;;;;5013518;28;20431;-68
2024/03/17 11:15:58;;;;;;;6.40;5.43;;;16.60;99.90;;;;;;5017764;28;20466;-68
2024/03/17 11:18:24;;;;;;;6.97;4.90;;;16.70;99.90;;;;;;5014646;28;20526;-68
2024/03/17 11:21:08;;;;;;;5.13;4.63;;;16.80;99.90;;;;;;5014695;28;20938;-68
2024/03/17 11:23:35;;;;;;;6.10;5.50;;;16.90;99.90;;;;;;5010355;28;20177;-67
2024/03/17 11:26:00;;;;;;;6.63;4.77;;;17.00;99.90;;;;;;5017171;28;20449;-67
2024/03/17 11:28:44;;;;;;;5.03;4.53;;;17.00;99.90;;;;;;5012949;28;20426;-67
2024/03/17 11:31:32;;;;;;;7.97;5.07;;;17.10;99.90;;;;;;5015300;28;20207;-67
2024/03/17 11:34:02;;;;;;;6.20;4.80;;;17.20;99.90;;;;;;5015764;28;20447;-67
2024/03/17 11:36:28;;;;;;;7.10;5.43;;;17.30;99.90;;;;;;5016472;28;20478;-68
2024/03/17 11:39:27;;;;;;;8.20;5.10;;;17.40;99.90;;;;;;5016306;28;20903;-66
2024/03/17 11:41:53;;;;;;;5.87;4.80;;;17.40;99.90;;;;;;5011437;28;20181;-67
2024/03/17 11:44:26;;;;;;;4.87;4.47;;;17.40;99.90;;;;;;5015376;28;20442;-67
2024/03/17 11:46:55;;;;;;;10.43;6.53;;;17.50;99.90;;;;;;5015148;28;20438;-67
2024/03/17 11:49:23;;;;;;;4.90;4.40;;;17.60;99.90;;;;;;5014492;28;21021;-67
2024/03/17 11:51:50;;;;;;;5.63;4.50;;;17.70;99.90;;;;;;5015848;28;20434;-67
2024/03/17 11:54:41;;;;;;;5.10;4.60;;;17.70;99.90;;;;;;5015399;28;20455;-67
2024/03/17 11:57:09;;;;;;;5.60;4.83;;;17.60;99.90;;;;;;5007818;28;20483;-67
2024/03/17 11:59:37;;;;;;;5.60;4.80;;;17.60;99.90;;;;;;5017632;28;20834;-68
2024/03/17 12:02:02;;;;;;;5.80;4.70;;;17.60;99.90;;;;;;5013669;28;20415;-68
2024/03/17 12:04:28;;;;;;;5.80;5.20;;;17.60;99.90;;;;;;5017813;28;21000;-67
2024/03/17 12:06:59;;;;;;;5.90;5.00;;;17.80;99.90;;;;;;5019518;28;20191;-69
2024/03/17 12:09:30;;;;;;;6.23;5.03;;;17.80;99.90;;;;;;5014460;28;20426;-66
2024/03/17 12:12:04;;;;;;;6.17;5.00;;;17.90;99.90;;;;;;5015075;28;20518;-66
2024/03/17 12:14:31;;;;;;;7.40;4.90;;;18.10;99.90;;;;;;5016474;28;20435;-67
2024/03/17 12:17:01;;;;;;;6.67;5.13;;;18.10;99.90;;;;;;5018773;28;20471;-67
2024/03/17 12:19:27;;;;;;;5.43;4.93;;;18.30;99.90;;;;;;5010157;28;20515;-68
2024/03/17 12:21:55;;;;;;;6.50;4.50;;;18.60;99.90;;;;;;5012233;28;20513;-67
2024/03/17 12:24:26;;;;;;;6.43;5.00;;;19.00;99.90;;;;;;5010920;28;20962;-67
2024/03/17 12:27:02;;;;;;;5.00;4.50;;;19.00;99.90;;;;;;5015214;28;21115;-67
2024/03/17 12:29:35;;;;;;;7.50;4.60;;;19.30;99.90;;;;;;5024240;28;20449;-67
2024/03/17 12:32:21;;;;;;;5.80;5.20;;;19.80;99.90;;;;;;5022943;28;20830;-67
2024/03/17 12:34:51;;;;;;;8.03;5.30;;;20.40;99.90;;;;;;5017766;28;20964;-67
2024/03/17 12:37:33;;;;;;;8.10;4.57;;;20.70;99.90;;;;;;5029101;28;20857;-67
2024/03/17 12:40:03;;;;;;;6.07;4.40;;;21.50;99.90;;;;;;5019493;28;20857;-67
2024/03/17 12:42:30;;;;;;;5.30;4.80;;;21.90;99.90;;;;;;5015170;28;20427;-68
2024/03/17 12:44:57;;;;;;;5.37;4.87;;;22.00;99.90;;;;;;5016930;28;20481;-67
2024/03/17 12:47:30;;;;;;;4.37;3.97;;;21.90;99.90;;;;;;5012309;28;20416;-67
2024/03/17 12:49:59;;;;;;;4.67;4.20;;;21.70;99.20;;;;;;5011756;28;20408;-67
2024/03/17 12:52:29;;;;;;;5.50;3.47;;;21.30;98.60;;;;;;5013267;28;20431;-67